Time;durP1;ratioP1;P1;durP2;ratioP2;P2;SDS_P1;SDS_P2;PMS_P1;PMS_P2;Temp;Humidity;BMP_temperature;BMP_pressure;BME280_temperature;BME280_humidity;BME280_pressure;Samples;Min_cycle;Max_cycle;Signal;HPM_P1;HPM_P2
2023/07/25 00:00:33;;;;;;;3.43;1.67;;;16.60;99.90;;;;;;5091374;28;20292;-72
2023/07/25 00:02:58;;;;;;;4.67;2.53;;;16.60;99.90;;;;;;5093806;28;20874;-72
2023/07/25 00:05:24;;;;;;;3.70;2.10;;;16.50;99.90;;;;;;5094566;28;20239;-72
2023/07/25 00:07:49;;;;;;;4.13;1.33;;;16.50;99.90;;;;;;5094462;28;20673;-72
2023/07/25 00:10:15;;;;;;;6.80;1.40;;;16.50;99.90;;;;;;5087772;28;20228;-72
2023/07/25 00:12:41;;;;;;;1.93;1.80;;;16.50;99.90;;;;;;5094084;28;20239;-72
2023/07/25 00:15:07;;;;;;;2.10;1.63;;;16.50;99.90;;;;;;5090447;28;20439;-72
2023/07/25 00:17:33;;;;;;;3.00;1.60;;;16.50;99.90;;;;;;5090774;28;20425;-72
2023/07/25 00:19:58;;;;;;;1.47;1.37;;;16.50;99.90;;;;;;5094678;28;20984;-72
2023/07/25 00:22:24;;;;;;;2.13;1.47;;;16.40;99.90;;;;;;5093335;28;20252;-72
2023/07/25 00:24:50;;;;;;;2.20;1.83;;;16.40;99.90;;;;;;5078528;28;20174;-71
2023/07/25 00:27:15;;;;;;;1.80;1.57;;;16.40;99.90;;;;;;5093345;28;20166;-72
2023/07/25 00:29:41;;;;;;;3.10;1.60;;;16.40;99.90;;;;;;5090538;28;20189;-72
2023/07/25 00:32:07;;;;;;;3.00;1.90;;;16.40;99.90;;;;;;5090323;28;20279;-72
2023/07/25 00:34:32;;;;;;;2.00;1.90;;;16.40;99.90;;;;;;5094142;28;20530;-71
2023/07/25 00:36:58;;;;;;;1.90;1.70;;;16.50;99.90;;;;;;5092451;28;20443;-72
2023/07/25 00:39:23;;;;;;;1.70;1.60;;;16.50;99.90;;;;;;5093048;28;20197;-72
2023/07/25 00:41:49;;;;;;;7.23;2.00;;;16.50;99.90;;;;;;5091524;28;20181;-72
2023/07/25 00:44:14;;;;;;;4.43;1.57;;;16.50;99.90;;;;;;5091634;28;20180;-72
2023/07/25 00:46:41;;;;;;;2.10;1.87;;;16.50;99.90;;;;;;5091817;28;20182;-72
2023/07/25 00:49:07;;;;;;;3.10;2.03;;;16.50;99.90;;;;;;5092906;28;20197;-72
2023/07/25 00:51:34;;;;;;;5.03;1.90;;;16.60;99.90;;;;;;5085961;28;20983;-72
2023/07/25 00:54:00;;;;;;;3.30;1.83;;;16.50;99.90;;;;;;5084657;28;20463;-72
2023/07/25 00:56:26;;;;;;;7.47;2.43;;;16.60;99.90;;;;;;5093288;28;20450;-72
2023/07/25 00:58:52;;;;;;;2.50;1.83;;;16.50;99.90;;;;;;5073917;28;20460;-71
2023/07/25 01:01:18;;;;;;;2.73;2.07;;;16.50;99.90;;;;;;5083156;28;20203;-72
2023/07/25 01:03:44;;;;;;;1.83;1.60;;;16.50;99.90;;;;;;5092735;28;20407;-72
2023/07/25 01:06:12;;;;;;;2.30;1.60;;;16.50;99.90;;;;;;5091588;28;20435;-72
2023/07/25 01:08:52;;;;;;;2.20;2.00;;;16.50;99.90;;;;;;5092280;28;20489;-72
2023/07/25 01:11:19;;;;;;;8.13;2.03;;;16.50;99.90;;;;;;5088310;28;20407;-72
2023/07/25 01:13:45;;;;;;;1.43;1.33;;;16.50;99.90;;;;;;5090537;28;20455;-72
2023/07/25 01:16:14;;;;;;;2.57;1.77;;;16.50;99.90;;;;;;5086513;28;20431;-72
2023/07/25 01:18:40;;;;;;;2.27;1.70;;;16.40;99.90;;;;;;5089542;28;20443;-72
2023/07/25 01:21:06;;;;;;;2.83;2.33;;;16.40;99.90;;;;;;5093589;28;20403;-72
2023/07/25 01:23:32;;;;;;;4.23;2.10;;;16.40;99.90;;;;;;5093622;28;20412;-72
2023/07/25 01:25:58;;;;;;;2.30;2.10;;;16.40;99.90;;;;;;5087171;28;20439;-72
2023/07/25 01:28:24;;;;;;;4.40;1.60;;;16.30;99.90;;;;;;5093435;28;20526;-72
2023/07/25 01:30:49;;;;;;;3.30;2.10;;;16.30;99.90;;;;;;5082486;28;20178;-72
2023/07/25 01:33:15;;;;;;;2.13;1.80;;;16.20;99.90;;;;;;5092082;28;20462;-72
2023/07/25 01:35:40;;;;;;;1.50;1.23;;;16.20;99.90;;;;;;5092030;28;20173;-72
2023/07/25 01:38:06;;;;;;;2.57;1.80;;;16.10;99.90;;;;;;5093243;28;20169;-72
2023/07/25 01:40:31;;;;;;;2.03;1.93;;;16.10;99.90;;;;;;5089251;28;20180;-72
2023/07/25 01:42:57;;;;;;;2.97;1.63;;;16.10;99.90;;;;;;5093111;28;20176;-72
2023/07/25 01:45:22;;;;;;;7.83;2.30;;;16.10;99.90;;;;;;5087107;28;20202;-72
2023/07/25 01:47:48;;;;;;;3.27;2.30;;;16.00;99.90;;;;;;5089724;28;20190;-72
2023/07/25 01:50:14;;;;;;;3.17;2.07;;;16.00;99.90;;;;;;5086992;28;20190;-72
2023/07/25 01:52:39;;;;;;;3.00;1.90;;;16.00;99.90;;;;;;5091747;28;20582;-72
2023/07/25 01:55:05;;;;;;;4.60;3.07;;;15.90;99.90;;;;;;5091815;28;20170;-72
2023/07/25 01:57:31;;;;;;;4.50;1.93;;;15.90;99.90;;;;;;5091635;28;20177;-72
2023/07/25 01:59:57;;;;;;;3.13;2.03;;;15.80;99.90;;;;;;5090668;28;20468;-72
2023/07/25 02:02:23;;;;;;;3.17;2.10;;;15.80;99.90;;;;;;5091558;28;20177;-71
2023/07/25 02:04:48;;;;;;;4.90;1.93;;;15.70;99.90;;;;;;5089525;28;20773;-72
2023/07/25 02:07:14;;;;;;;4.37;2.37;;;15.70;99.90;;;;;;5072184;28;20170;-72
2023/07/25 02:09:39;;;;;;;2.20;2.00;;;15.60;99.90;;;;;;5083000;28;20210;-72
2023/07/25 02:12:06;;;;;;;2.37;2.17;;;15.50;99.90;;;;;;5091509;28;20168;-72
2023/07/25 02:14:32;;;;;;;3.87;2.10;;;15.50;99.90;;;;;;5087153;28;20212;-72
2023/07/25 02:16:57;;;;;;;3.30;1.80;;;15.40;99.90;;;;;;5090785;28;20440;-72
2023/07/25 02:19:23;;;;;;;3.50;1.90;;;15.30;99.90;;;;;;5092447;28;20197;-72
2023/07/25 02:21:48;;;;;;;2.70;2.13;;;15.30;99.90;;;;;;5089362;28;20190;-71
2023/07/25 02:24:14;;;;;;;2.50;1.73;;;15.20;99.90;;;;;;5075337;28;20186;-72
2023/07/25 02:26:39;;;;;;;3.17;2.20;;;15.20;99.90;;;;;;5088133;28;20188;-72
2023/07/25 02:29:05;;;;;;;1.70;1.60;;;15.20;99.90;;;;;;5085566;28;20229;-72
2023/07/25 02:31:30;;;;;;;3.07;2.20;;;15.20;99.90;;;;;;5089849;28;20268;-72
2023/07/25 02:33:56;;;;;;;3.00;1.87;;;15.20;99.90;;;;;;5090159;28;20184;-72
2023/07/25 02:36:21;;;;;;;2.53;1.90;;;15.20;99.90;;;;;;5072567;28;20722;-72
2023/07/25 02:38:47;;;;;;;2.10;1.90;;;15.20;99.90;;;;;;5088150;28;20219;-72
2023/07/25 02:41:12;;;;;;;3.07;2.60;;;15.20;99.90;;;;;;5089871;28;20196;-72
2023/07/25 02:43:38;;;;;;;3.43;2.37;;;15.20;99.90;;;;;;5090292;28;20197;-72
2023/07/25 02:46:03;;;;;;;2.20;1.97;;;15.10;99.90;;;;;;5089690;28;20170;-72
2023/07/25 02:48:29;;;;;;;2.77;2.57;;;15.20;99.90;;;;;;5090754;28;20181;-71
2023/07/25 02:50:54;;;;;;;1.70;1.57;;;15.10;99.90;;;;;;5088592;28;20174;-71
2023/07/25 02:53:20;;;;;;;2.90;2.00;;;15.10;99.90;;;;;;5090576;28;20192;-71
2023/07/25 02:55:45;;;;;;;2.13;1.90;;;15.10;99.90;;;;;;5089217;28;20184;-71
2023/07/25 02:58:12;;;;;;;1.80;1.70;;;15.20;99.90;;;;;;5091794;28;20169;-71
2023/07/25 03:00:38;;;;;;;4.87;2.80;;;15.20;99.90;;;;;;5087367;28;20547;-71
2023/07/25 03:03:03;;;;;;;2.90;1.90;;;15.30;99.90;;;;;;5091937;28;20447;-71
2023/07/25 03:05:29;;;;;;;2.50;2.30;;;15.30;99.90;;;;;;5078568;28;20174;-71
2023/07/25 03:07:55;;;;;;;4.23;2.80;;;15.40;99.90;;;;;;5080288;28;20642;-71
2023/07/25 03:10:22;;;;;;;2.40;1.87;;;15.50;99.90;;;;;;5084581;28;20531;-71
2023/07/25 03:12:47;;;;;;;3.73;2.33;;;15.50;99.90;;;;;;5087371;28;20424;-71
2023/07/25 03:15:13;;;;;;;3.30;2.20;;;15.60;99.90;;;;;;5085935;28;20963;-71
2023/07/25 03:17:38;;;;;;;3.60;2.30;;;15.60;99.90;;;;;;5090197;28;20641;-71
2023/07/25 03:20:06;;;;;;;2.07;1.63;;;15.70;99.90;;;;;;5092126;28;20192;-71
2023/07/25 03:22:31;;;;;;;5.23;2.10;;;15.70;99.90;;;;;;5092585;28;20189;-71
2023/07/25 03:24:57;;;;;;;3.13;2.27;;;15.70;99.90;;;;;;5094050;28;20431;-71
2023/07/25 03:27:22;;;;;;;3.10;2.80;;;15.80;99.90;;;;;;5095702;28;20535;-71
2023/07/25 03:29:48;;;;;;;3.73;2.77;;;15.80;99.90;;;;;;5090707;28;20227;-72
2023/07/25 03:32:13;;;;;;;4.47;2.20;;;15.80;99.90;;;;;;5083243;28;20209;-71
2023/07/25 03:34:39;;;;;;;4.77;2.80;;;15.90;99.90;;;;;;5094072;28;20173;-71
2023/07/25 03:37:05;;;;;;;4.10;2.57;;;15.90;99.90;;;;;;5093235;28;20584;-71
2023/07/25 03:39:30;;;;;;;4.37;2.40;;;15.90;99.90;;;;;;5091552;28;20560;-72
2023/07/25 03:41:56;;;;;;;4.83;2.40;;;15.90;99.90;;;;;;5093876;28;20169;-72
2023/07/25 03:44:21;;;;;;;3.03;2.33;;;15.90;99.90;;;;;;5086785;28;20205;-71
2023/07/25 03:46:47;;;;;;;6.63;2.67;;;15.90;99.90;;;;;;5088180;28;20650;-71
2023/07/25 03:49:13;;;;;;;3.63;1.80;;;15.90;99.90;;;;;;5088752;28;20216;-72
2023/07/25 03:51:38;;;;;;;4.63;2.60;;;15.90;99.90;;;;;;5084673;28;20559;-71
2023/07/25 03:54:05;;;;;;;2.90;1.80;;;15.90;99.90;;;;;;5082895;28;22474;-72
2023/07/25 03:56:31;;;;;;;5.17;3.50;;;15.90;99.90;;;;;;5090338;28;20688;-71
2023/07/25 03:58:58;;;;;;;4.80;2.00;;;15.90;99.90;;;;;;5095711;28;20932;-72
2023/07/25 04:01:23;;;;;;;4.33;2.77;;;15.90;99.90;;;;;;5089099;28;20434;-71
2023/07/25 04:03:49;;;;;;;5.77;2.77;;;15.90;99.90;;;;;;5093419;28;20460;-72
2023/07/25 04:06:15;;;;;;;4.50;2.60;;;15.80;99.90;;;;;;5091955;28;20426;-72
2023/07/25 04:08:41;;;;;;;3.07;2.70;;;15.80;99.90;;;;;;5092112;28;20205;-72
2023/07/25 04:11:06;;;;;;;3.73;2.37;;;15.80;99.90;;;;;;5094172;28;20646;-72
2023/07/25 04:13:34;;;;;;;3.63;2.30;;;15.70;99.90;;;;;;5094868;28;20235;-72
2023/07/25 04:15:59;;;;;;;3.30;2.30;;;15.60;99.90;;;;;;5089373;28;20227;-72
2023/07/25 04:18:25;;;;;;;6.27;2.30;;;15.50;99.90;;;;;;5089945;28;20446;-72
2023/07/25 04:20:51;;;;;;;2.77;2.53;;;15.50;99.90;;;;;;5090348;28;20180;-71
2023/07/25 04:23:16;;;;;;;4.70;2.23;;;15.40;99.90;;;;;;5081101;28;20194;-71
2023/07/25 04:25:42;;;;;;;2.77;2.30;;;15.30;99.90;;;;;;5073844;28;20166;-71
2023/07/25 04:28:08;;;;;;;2.30;2.10;;;15.20;99.90;;;;;;5089151;28;20170;-71
2023/07/25 04:30:33;;;;;;;13.10;3.50;;;15.20;99.90;;;;;;5090304;28;20654;-71
2023/07/25 04:32:59;;;;;;;2.67;2.00;;;15.20;99.90;;;;;;5092088;28;20408;-71
2023/07/25 04:35:25;;;;;;;3.50;2.60;;;15.20;99.90;;;;;;5094190;28;20593;-71
2023/07/25 04:37:50;;;;;;;3.60;2.30;;;15.20;99.90;;;;;;5078166;28;20178;-71
2023/07/25 04:40:16;;;;;;;2.17;2.03;;;15.30;99.90;;;;;;5093245;28;20201;-71
2023/07/25 04:42:41;;;;;;;4.50;2.57;;;15.40;99.90;;;;;;5093107;28;20193;-72
2023/07/25 04:45:07;;;;;;;2.67;1.90;;;15.50;99.90;;;;;;5087293;28;20231;-71
2023/07/25 04:47:33;;;;;;;2.43;2.23;;;15.60;99.90;;;;;;5090626;28;20173;-71
2023/07/25 04:49:58;;;;;;;3.30;2.53;;;15.70;99.90;;;;;;5093461;28;20446;-71
2023/07/25 04:52:24;;;;;;;2.07;1.83;;;15.80;99.90;;;;;;5083764;28;20855;-71
2023/07/25 04:54:50;;;;;;;5.93;3.00;;;15.90;99.90;;;;;;5082193;28;20205;-71
2023/07/25 04:57:16;;;;;;;5.73;2.53;;;16.10;99.90;;;;;;5091486;28;20545;-71
2023/07/25 04:59:41;;;;;;;2.87;2.60;;;16.20;99.90;;;;;;5093913;28;20426;-71
2023/07/25 05:02:07;;;;;;;2.43;2.07;;;16.50;99.90;;;;;;5087028;28;20260;-71
2023/07/25 05:04:32;;;;;;;2.80;2.60;;;16.70;99.90;;;;;;5091751;28;20205;-71
2023/07/25 05:06:58;;;;;;;3.70;2.63;;;17.00;99.90;;;;;;5088863;28;20711;-71
2023/07/25 05:09:24;;;;;;;4.83;2.10;;;17.20;99.90;;;;;;5088948;28;20194;-71
2023/07/25 05:11:51;;;;;;;3.83;2.30;;;17.50;99.90;;;;;;5090025;28;20171;-71
2023/07/25 05:14:17;;;;;;;7.10;3.47;;;17.70;99.90;;;;;;5092496;28;20188;-71
2023/07/25 05:16:43;;;;;;;4.53;2.70;;;17.90;99.90;;;;;;5084540;28;20427;-72
2023/07/25 05:19:08;;;;;;;4.83;2.60;;;18.00;99.90;;;;;;5090394;28;20781;-71
2023/07/25 05:21:34;;;;;;;2.60;2.40;;;18.10;99.90;;;;;;5085743;28;20182;-72
2023/07/25 05:23:59;;;;;;;2.80;2.50;;;18.10;99.90;;;;;;5093419;28;20197;-71
2023/07/25 05:26:25;;;;;;;5.27;2.80;;;18.10;99.90;;;;;;5082831;28;20227;-71
2023/07/25 05:28:50;;;;;;;3.10;2.43;;;18.10;99.90;;;;;;5090830;28;20202;-71
2023/07/25 05:31:16;;;;;;;2.90;2.70;;;18.00;99.90;;;;;;5084822;28;20178;-71
2023/07/25 05:33:41;;;;;;;3.50;2.60;;;18.00;99.90;;;;;;5093426;28;20172;-71
2023/07/25 05:36:07;;;;;;;8.37;3.23;;;17.90;99.90;;;;;;5084644;28;20174;-71
2023/07/25 05:38:32;;;;;;;2.20;2.00;;;17.80;99.90;;;;;;5086933;28;20200;-71
2023/07/25 05:40:58;;;;;;;3.07;2.77;;;17.80;99.90;;;;;;5092556;28;20619;-71
2023/07/25 05:43:24;;;;;;;6.57;2.90;;;17.80;99.90;;;;;;5092125;28;20197;-71
2023/07/25 05:45:49;;;;;;;7.00;2.97;;;17.80;99.90;;;;;;5088286;28;20178;-71
2023/07/25 05:48:15;;;;;;;3.47;3.17;;;17.80;99.90;;;;;;5086659;28;20631;-71
2023/07/25 05:50:40;;;;;;;5.33;3.40;;;17.80;99.90;;;;;;5084671;28;20189;-71
2023/07/25 05:53:06;;;;;;;4.60;3.00;;;17.90;99.90;;;;;;5091453;28;20623;-71
2023/07/25 05:55:31;;;;;;;3.70;3.10;;;18.00;99.90;;;;;;5081806;28;20178;-72
2023/07/25 05:57:57;;;;;;;3.50;2.63;;;18.10;99.90;;;;;;5090951;28;20696;-71
2023/07/25 06:00:22;;;;;;;3.37;3.07;;;18.20;99.90;;;;;;5086977;28;20202;-71
2023/07/25 06:02:48;;;;;;;2.43;2.10;;;18.30;99.90;;;;;;5090183;28;20206;-70
2023/07/25 06:05:13;;;;;;;2.77;2.57;;;18.40;99.90;;;;;;5090581;28;20695;-70
2023/07/25 06:07:39;;;;;;;3.50;2.60;;;18.50;99.90;;;;;;5083193;28;20186;-71
2023/07/25 06:10:06;;;;;;;5.90;2.80;;;18.60;99.90;;;;;;5089137;28;20197;-71
2023/07/25 06:12:31;;;;;;;6.13;2.87;;;18.70;99.90;;;;;;5091595;28;20178;-71
2023/07/25 06:14:57;;;;;;;5.87;2.90;;;18.80;99.90;;;;;;5087093;28;20942;-71
2023/07/25 06:17:22;;;;;;;5.47;3.63;;;19.00;99.90;;;;;;5080250;28;20167;-70
2023/07/25 06:19:48;;;;;;;2.57;2.37;;;19.20;99.90;;;;;;5087447;28;20682;-71
2023/07/25 06:22:14;;;;;;;3.57;2.10;;;19.40;99.90;;;;;;5084053;28;20181;-71
2023/07/25 06:24:41;;;;;;;4.87;2.67;;;19.50;99.90;;;;;;5082824;28;20714;-71
2023/07/25 06:27:06;;;;;;;2.90;2.60;;;19.60;99.90;;;;;;5083064;28;20428;-71
2023/07/25 06:29:32;;;;;;;4.07;2.20;;;19.70;99.90;;;;;;5076410;28;20517;-71
2023/07/25 06:31:58;;;;;;;4.00;2.23;;;19.80;99.90;;;;;;5088134;28;20445;-70
2023/07/25 06:34:23;;;;;;;3.13;2.60;;;20.00;99.90;;;;;;5076514;28;20189;-71
2023/07/25 06:36:49;;;;;;;2.43;2.10;;;20.10;99.90;;;;;;5088332;28;20235;-70
2023/07/25 06:39:14;;;;;;;9.20;2.57;;;20.30;99.90;;;;;;5090712;28;20304;-70
2023/07/25 06:41:40;;;;;;;3.00;2.70;;;20.60;99.90;;;;;;5092389;28;20185;-70
2023/07/25 06:44:05;;;;;;;2.70;2.07;;;21.10;99.90;;;;;;5089939;28;20193;-71
2023/07/25 06:46:31;;;;;;;2.17;2.07;;;21.40;99.90;;;;;;5092741;28;20191;-71
2023/07/25 06:48:57;;;;;;;4.90;3.30;;;21.60;99.90;;;;;;5092172;28;20576;-71
2023/07/25 06:51:22;;;;;;;5.77;2.03;;;21.80;99.90;;;;;;5089272;28;20177;-71
2023/07/25 06:53:48;;;;;;;4.90;2.70;;;21.90;99.90;;;;;;5078429;28;20281;-71
2023/07/25 06:56:13;;;;;;;5.17;2.40;;;22.30;99.90;;;;;;5082181;28;20209;-71
2023/07/25 06:58:39;;;;;;;5.83;2.57;;;22.80;99.90;;;;;;5077885;28;20213;-71
2023/07/25 07:01:05;;;;;;;3.37;2.37;;;23.30;99.90;;;;;;5086320;28;20173;-71
2023/07/25 07:03:30;;;;;;;2.60;2.33;;;23.70;99.90;;;;;;5091835;28;20251;-71
2023/07/25 07:05:56;;;;;;;5.17;2.90;;;24.00;99.90;;;;;;5090290;28;20645;-71
2023/07/25 07:08:22;;;;;;;3.07;2.30;;;24.20;99.90;;;;;;5083676;28;21133;-71
2023/07/25 07:10:54;;;;;;;5.50;2.07;;;24.10;99.90;;;;;;5082738;28;21005;-72
2023/07/25 07:13:23;;;;;;;2.60;2.30;;;24.10;99.90;;;;;;5084596;28;20431;-71
2023/07/25 07:15:50;;;;;;;2.37;1.67;;;24.10;99.90;;;;;;5080765;28;20420;-71
2023/07/25 07:18:16;;;;;;;4.63;2.30;;;24.20;99.90;;;;;;5077360;28;20435;-71
2023/07/25 07:20:48;;;;;;;7.33;2.53;;;24.10;99.90;;;;;;5084576;28;20518;-71
2023/07/25 07:23:15;;;;;;;3.87;1.93;;;24.00;99.90;;;;;;5091641;28;20459;-71
2023/07/25 07:25:42;;;;;;;4.03;2.17;;;23.90;99.90;;;;;;5091241;28;20450;-71
2023/07/25 07:28:07;;;;;;;2.80;2.17;;;23.80;99.90;;;;;;5078235;28;20432;-71
2023/07/25 07:30:33;;;;;;;3.43;2.37;;;23.60;99.90;;;;;;5081924;28;20562;-71
2023/07/25 07:32:59;;;;;;;2.40;2.20;;;23.50;99.90;;;;;;5086662;28;20182;-71
2023/07/25 07:35:24;;;;;;;2.37;2.20;;;23.30;99.90;;;;;;5083678;28;20647;-70
2023/07/25 07:37:50;;;;;;;5.83;1.77;;;23.10;99.90;;;;;;5089558;28;20173;-70
2023/07/25 07:40:15;;;;;;;2.07;1.80;;;23.00;99.90;;;;;;5074960;28;20202;-71
2023/07/25 07:42:41;;;;;;;5.97;2.10;;;22.90;99.90;;;;;;5083682;28;20551;-71
2023/07/25 07:45:07;;;;;;;2.73;2.13;;;22.90;99.90;;;;;;5087106;28;20583;-71
2023/07/25 07:47:32;;;;;;;2.47;2.20;;;22.90;99.90;;;;;;5086993;28;20170;-71
2023/07/25 07:49:59;;;;;;;2.57;2.30;;;23.00;99.90;;;;;;5082979;28;20426;-71
2023/07/25 07:52:24;;;;;;;3.10;2.43;;;23.10;99.90;;;;;;5083702;28;20527;-71
2023/07/25 07:54:50;;;;;;;3.67;2.70;;;23.20;99.90;;;;;;5091383;28;20409;-71
2023/07/25 07:57:15;;;;;;;3.07;2.77;;;23.30;99.90;;;;;;5084034;28;20171;-71
2023/07/25 07:59:43;;;;;;;5.00;3.13;;;23.40;99.90;;;;;;5082099;28;20201;-71
2023/07/25 08:02:09;;;;;;;3.20;2.50;;;23.50;99.90;;;;;;5083529;28;20257;-71
2023/07/25 08:04:35;;;;;;;2.77;2.57;;;23.70;99.90;;;;;;5082073;28;20543;-71
2023/07/25 08:07:00;;;;;;;4.03;3.03;;;23.80;99.90;;;;;;5087543;28;20551;-71
2023/07/25 08:09:26;;;;;;;3.13;2.77;;;24.00;99.90;;;;;;5092440;28;20266;-71
2023/07/25 08:11:51;;;;;;;3.67;3.37;;;24.10;99.90;;;;;;5094124;28;20196;-71
2023/07/25 08:14:17;;;;;;;6.00;3.40;;;24.20;99.90;;;;;;5085873;28;20577;-72
2023/07/25 08:16:42;;;;;;;3.40;3.10;;;24.10;99.90;;;;;;5090125;28;20175;-71
2023/07/25 08:19:08;;;;;;;6.73;4.40;;;24.00;99.90;;;;;;5092389;28;20212;-71
2023/07/25 08:21:33;;;;;;;4.53;3.97;;;23.90;99.90;;;;;;5089896;28;20178;-72
2023/07/25 08:23:59;;;;;;;9.70;4.40;;;23.70;99.90;;;;;;5093689;28;20201;-72
2023/07/25 08:26:24;;;;;;;4.37;3.87;;;23.70;99.90;;;;;;5086806;28;20706;-71
2023/07/25 08:28:50;;;;;;;3.87;3.50;;;23.60;99.90;;;;;;5089484;28;20193;-71
2023/07/25 08:31:15;;;;;;;3.90;3.60;;;23.60;99.90;;;;;;5092719;28;20174;-71
2023/07/25 08:33:44;;;;;;;7.70;3.83;;;23.50;99.90;;;;;;5085874;28;20178;-71
2023/07/25 08:36:10;;;;;;;5.20;4.27;;;23.50;99.90;;;;;;5081250;28;20174;-71
2023/07/25 08:38:36;;;;;;;4.30;3.60;;;23.50;99.90;;;;;;5087324;28;20451;-71
2023/07/25 08:41:09;;;;;;;5.57;4.40;;;23.50;99.90;;;;;;5085788;28;20419;-71
2023/07/25 08:43:37;;;;;;;4.60;4.20;;;23.60;99.90;;;;;;5089733;28;20458;-71
2023/07/25 08:46:08;;;;;;;7.53;3.83;;;23.70;99.90;;;;;;5094653;28;20404;-71
2023/07/25 08:48:36;;;;;;;11.00;8.90;;;24.00;99.90;;;;;;5094564;28;20418;-71
2023/07/25 08:51:03;;;;;;;6.60;6.10;;;24.40;99.90;;;;;;5088284;28;20499;-72
2023/07/25 08:53:30;;;;;;;6.53;5.90;;;24.80;99.90;;;;;;5088123;28;20480;-71
2023/07/25 08:55:57;;;;;;;7.17;6.57;;;25.00;99.90;;;;;;5085710;28;20427;-71
2023/07/25 08:58:24;;;;;;;14.20;7.00;;;25.00;99.90;;;;;;5091106;28;20423;-72
2023/07/25 09:00:50;;;;;;;7.30;6.67;;;25.00;99.90;;;;;;5086547;28;20432;-72
2023/07/25 09:03:16;;;;;;;7.77;6.60;;;25.10;99.90;;;;;;5092324;28;20467;-71
2023/07/25 09:05:42;;;;;;;9.53;6.87;;;25.50;99.90;;;;;;5088508;28;20429;-71
2023/07/25 09:08:08;;;;;;;7.90;6.30;;;26.60;99.50;;;;;;5090691;28;20189;-72
2023/07/25 09:10:33;;;;;;;8.63;7.80;;;27.40;93.50;;;;;;5089385;28;20428;-72
2023/07/25 09:12:59;;;;;;;7.20;6.07;;;28.00;86.90;;;;;;5092268;28;20172;-71
2023/07/25 09:15:24;;;;;;;6.57;5.93;;;28.50;78.90;;;;;;5085243;28;20177;-73
2023/07/25 09:17:53;;;;;;;6.70;5.20;;;28.60;73.10;;;;;;5090467;28;20184;-71
2023/07/25 09:20:19;;;;;;;5.17;4.67;;;28.30;66.70;;;;;;5091592;28;20327;-70
2023/07/25 09:22:47;;;;;;;5.70;5.20;;;27.80;64.50;;;;;;5088936;28;20513;-70
2023/07/25 09:25:14;;;;;;;6.17;4.63;;;27.10;65.60;;;;;;5087518;28;20407;-70
2023/07/25 09:27:44;;;;;;;9.00;4.27;;;26.50;66.20;;;;;;5091213;28;20443;-68
2023/07/25 09:30:14;;;;;;;4.23;3.83;;;25.90;66.20;;;;;;5091725;28;20439;-70
2023/07/25 09:32:45;;;;;;;3.33;3.03;;;25.30;68.30;;;;;;5091674;28;20516;-71
2023/07/25 09:35:11;;;;;;;3.93;2.90;;;24.90;75.70;;;;;;5088711;28;20419;-70
2023/07/25 09:37:37;;;;;;;3.00;2.80;;;24.60;80.30;;;;;;5083549;28;20785;-70
2023/07/25 09:40:09;;;;;;;3.40;2.10;;;24.40;82.40;;;;;;5092134;28;20189;-70
2023/07/25 09:42:41;;;;;;;2.70;2.30;;;24.30;84.90;;;;;;5093390;28;20169;-70
2023/07/25 09:45:08;;;;;;;2.33;2.13;;;24.30;86.60;;;;;;5083353;28;20510;-69
2023/07/25 09:47:35;;;;;;;4.23;2.17;;;24.40;88.20;;;;;;5091111;28;20424;-70
2023/07/25 09:50:03;;;;;;;3.83;2.30;;;24.50;88.60;;;;;;5088864;28;20469;-70
2023/07/25 09:52:38;;;;;;;2.80;1.67;;;24.50;86.60;;;;;;5091676;28;20462;-69
2023/07/25 09:55:04;;;;;;;3.90;2.70;;;24.30;86.10;;;;;;5072605;28;20392;-70
2023/07/25 09:57:29;;;;;;;3.50;2.07;;;23.90;84.80;;;;;;5072834;28;20412;-71
2023/07/25 09:59:55;;;;;;;3.47;2.57;;;23.60;87.60;;;;;;5076663;28;20459;-70
2023/07/25 10:02:21;;;;;;;3.37;2.57;;;23.40;90.90;;;;;;5087185;28;20260;-69
2023/07/25 10:04:49;;;;;;;3.87;2.60;;;23.30;90.10;;;;;;5092763;28;20494;-69
2023/07/25 10:07:15;;;;;;;3.23;2.93;;;23.30;91.00;;;;;;5091656;28;20189;-69
2023/07/25 10:09:42;;;;;;;3.17;2.87;;;23.40;93.00;;;;;;5072042;28;20424;-71
2023/07/25 10:12:08;;;;;;;3.97;3.13;;;23.80;94.20;;;;;;5086058;28;20435;-70
2023/07/25 10:14:37;;;;;;;4.70;3.33;;;25.30;94.30;;;;;;5081358;28;20435;-70
2023/07/25 10:17:06;;;;;;;2.77;2.00;;;26.90;88.30;;;;;;5091540;28;20470;-70
2023/07/25 10:19:55;;;;;;;3.90;2.70;;;28.20;78.70;;;;;;5089444;28;20466;-70
2023/07/25 10:22:40;;;;;;;2.00;1.80;;;28.80;68.40;;;;;;5082129;28;20947;-70
2023/07/25 10:25:10;;;;;;;1.80;1.47;;;28.70;62.40;;;;;;5075414;28;20439;-70
2023/07/25 10:27:36;;;;;;;2.17;1.80;;;28.70;60.60;;;;;;5092398;28;20408;-70
2023/07/25 10:30:02;;;;;;;3.13;1.77;;;30.20;60.70;;;;;;5088193;28;20962;-71
2023/07/25 10:32:49;;;;;;;3.37;1.67;;;32.10;55.30;;;;;;5092347;28;20215;-70
2023/07/25 10:35:15;;;;;;;1.70;1.60;;;33.20;49.80;;;;;;5085284;28;20837;-70
2023/07/25 10:37:44;;;;;;;2.20;1.80;;;33.00;47.20;;;;;;5078641;28;20500;-70
2023/07/25 10:40:11;;;;;;;2.73;1.73;;;32.60;46.90;;;;;;5091228;28;20205;-71
2023/07/25 10:42:50;;;;;;;4.63;1.23;;;32.40;46.50;;;;;;5081379;28;20424;-71
2023/07/25 10:45:45;;;;;;;1.70;1.20;;;34.60;46.40;;;;;;5089664;28;20500;-71
2023/07/25 10:48:26;;;;;;;2.87;1.57;;;36.30;42.50;;;;;;5091012;28;21009;-70
2023/07/25 10:50:54;;;;;;;2.13;1.70;;;36.20;39.30;;;;;;5092116;28;20411;-71
2023/07/25 10:53:20;;;;;;;1.57;1.20;;;36.10;39.80;;;;;;5078139;28;20443;-70
2023/07/25 10:56:04;;;;;;;1.47;1.33;;;36.50;37.90;;;;;;5088676;28;20575;-71
2023/07/25 10:58:30;;;;;;;3.00;1.43;;;36.00;37.60;;;;;;5083699;28;20528;-70
2023/07/25 11:00:57;;;;;;;2.50;1.90;;;36.90;37.30;;;;;;5091593;28;20801;-71
2023/07/25 11:03:29;;;;;;;2.07;1.50;;;39.00;37.10;;;;;;5091852;28;20443;-70
2023/07/25 11:06:06;;;;;;;2.00;1.30;;;41.80;35.40;;;;;;5089123;28;20426;-71
2023/07/25 11:08:42;;;;;;;2.40;1.63;;;44.90;31.90;;;;;;5085673;28;20423;-71
2023/07/25 11:11:09;;;;;;;4.30;1.40;;;45.90;27.90;;;;;;5076704;28;20410;-72
2023/07/25 11:13:40;;;;;;;1.70;1.37;;;45.20;27.00;;;;;;5088422;28;20393;-69
2023/07/25 11:16:07;;;;;;;1.63;1.43;;;45.30;26.30;;;;;;5085666;28;20411;-70
2023/07/25 11:18:37;;;;;;;1.77;1.67;;;46.20;26.00;;;;;;5091791;28;20467;-69
2023/07/25 11:21:05;;;;;;;1.30;1.20;;;47.20;25.50;;;;;;5091725;28;20390;-70
2023/07/25 11:23:31;;;;;;;1.93;1.77;;;48.90;24.90;;;;;;5088321;28;20463;-70
2023/07/25 11:25:58;;;;;;;1.40;1.30;;;50.50;23.80;;;;;;5086532;28;20777;-70
2023/07/25 11:28:25;;;;;;;4.23;1.50;;;50.30;21.70;;;;;;5087430;28;20827;-70
2023/07/25 11:30:51;;;;;;;3.10;1.70;;;49.30;22.10;;;;;;5090369;28;20793;-71
2023/07/25 11:33:17;;;;;;;2.37;1.80;;;49.90;22.10;;;;;;5081150;28;20558;-71
2023/07/25 11:35:43;;;;;;;1.80;1.70;;;51.10;21.40;;;;;;5071228;28;20796;-70
2023/07/25 11:38:10;;;;;;;2.50;1.97;;;51.70;20.70;;;;;;5082382;28;20432;-71
2023/07/25 11:40:38;;;;;;;2.23;2.03;;;52.60;20.90;;;;;;5090746;28;20572;-70
2023/07/25 11:43:11;;;;;;;2.13;1.70;;;53.60;20.90;;;;;;5091570;28;20435;-71
2023/07/25 11:45:36;;;;;;;2.10;1.90;;;54.30;19.90;;;;;;5093216;28;20439;-71
2023/07/25 11:48:05;;;;;;;1.90;1.80;;;54.00;18.90;;;;;;5082680;28;20434;-70
2023/07/25 11:50:32;;;;;;;2.90;1.97;;;52.10;18.70;;;;;;5092201;28;20197;-70
2023/07/25 11:52:58;;;;;;;1.87;1.77;;;49.60;18.90;;;;;;5091372;28;20434;-70
2023/07/25 11:55:26;;;;;;;4.13;2.47;;;48.40;20.30;;;;;;5089901;28;20413;-70
2023/07/25 11:57:52;;;;;;;1.90;1.67;;;47.30;20.60;;;;;;5088710;28;20427;-70
2023/07/25 12:00:17;;;;;;;2.83;1.67;;;45.30;20.50;;;;;;5086702;28;20778;-70
2023/07/25 12:02:43;;;;;;;2.93;1.43;;;42.90;21.60;;;;;;5075199;28;20408;-69
2023/07/25 12:05:24;;;;;;;2.13;1.77;;;40.20;22.50;;;;;;5074743;28;20170;-69
2023/07/25 12:07:58;;;;;;;1.70;1.60;;;37.80;24.30;;;;;;5087788;28;20658;-69
2023/07/25 12:10:28;;;;;;;4.23;1.60;;;35.30;26.40;;;;;;5089371;28;20522;-69
2023/07/25 12:12:55;;;;;;;1.37;1.20;;;33.30;28.00;;;;;;5093519;28;20408;-71
2023/07/25 12:15:40;;;;;;;2.27;1.10;;;31.70;29.90;;;;;;5093517;28;20411;-71
2023/07/25 12:18:25;;;;;;;3.07;1.60;;;30.20;31.80;;;;;;5087723;28;20446;-71
2023/07/25 12:20:51;;;;;;;2.07;1.30;;;28.80;33.90;;;;;;5088933;28;20423;-70
2023/07/25 12:23:16;;;;;;;4.50;1.50;;;27.70;35.50;;;;;;5094180;28;20410;-70
2023/07/25 12:25:42;;;;;;;4.53;1.80;;;27.00;37.00;;;;;;5090839;28;20192;-69
2023/07/25 12:28:08;;;;;;;2.80;1.43;;;26.50;38.50;;;;;;5088785;28;20170;-70
2023/07/25 12:30:33;;;;;;;1.57;1.43;;;26.50;40.00;;;;;;5093543;28;20166;-71
2023/07/25 12:32:59;;;;;;;2.17;1.17;;;27.70;39.70;;;;;;5094642;28;20445;-70
2023/07/25 12:35:25;;;;;;;1.70;1.40;;;28.30;38.10;;;;;;5080954;28;20674;-69
2023/07/25 12:37:50;;;;;;;2.40;1.40;;;28.30;38.20;;;;;;5091816;28;20239;-70
2023/07/25 12:40:16;;;;;;;4.30;1.40;;;28.00;38.60;;;;;;5092414;28;20188;-70
2023/07/25 12:42:41;;;;;;;2.23;1.50;;;27.50;38.80;;;;;;5094566;28;20184;-69